sensor_id;sensor_type;location;lat;lon;timestamp;P1;durP1;ratioP1;P2;durP2;ratioP2
26696;SDS011;14312;52.614;13.496;2024-02-28T00:00:02;6.45;;;5.32;;
26696;SDS011;14312;52.614;13.496;2024-02-28T00:02:49;6.95;;;5.20;;
26696;SDS011;14312;52.614;13.496;2024-02-28T00:05:35;5.68;;;4.60;;
26696;SDS011;14312;52.614;13.496;2024-02-28T00:08:21;5.60;;;4.70;;
26696;SDS011;14312;52.614;13.496;2024-02-28T00:11:07;5.45;;;4.53;;
26696;SDS011;14312;52.614;13.496;2024-02-28T00:13:53;6.90;;;5.03;;
26696;SDS011;14312;52.614;13.496;2024-02-28T00:16:42;7.00;;;4.75;;
26696;SDS011;14312;52.614;13.496;2024-02-28T00:19:29;6.00;;;4.60;;
26696;SDS011;14312;52.614;13.496;2024-02-28T00:22:15;6.53;;;5.07;;
26696;SDS011;14312;52.614;13.496;2024-02-28T00:25:01;7.13;;;4.90;;
26696;SDS011;14312;52.614;13.496;2024-02-28T00:27:47;6.30;;;4.78;;
26696;SDS011;14312;52.614;13.496;2024-02-28T00:30:33;6.05;;;4.65;;
26696;SDS011;14312;52.614;13.496;2024-02-28T00:33:19;4.68;;;4.00;;
26696;SDS011;14312;52.614;13.496;2024-02-28T00:36:05;5.55;;;4.25;;
26696;SDS011;14312;52.614;13.496;2024-02-28T00:38:51;6.53;;;4.38;;
26696;SDS011;14312;52.614;13.496;2024-02-28T00:41:37;6.20;;;4.80;;
26696;SDS011;14312;52.614;13.496;2024-02-28T00:44:23;5.28;;;4.35;;
26696;SDS011;14312;52.614;13.496;2024-02-28T00:47:09;5.88;;;4.70;;
26696;SDS011;14312;52.614;13.496;2024-02-28T00:49:55;5.40;;;4.30;;
26696;SDS011;14312;52.614;13.496;2024-02-28T00:52:41;5.90;;;4.47;;
26696;SDS011;14312;52.614;13.496;2024-02-28T00:55:27;8.45;;;5.45;;
26696;SDS011;14312;52.614;13.496;2024-02-28T00:58:13;7.00;;;5.18;;
26696;SDS011;14312;52.614;13.496;2024-02-28T01:00:59;6.55;;;4.63;;
26696;SDS011;14312;52.614;13.496;2024-02-28T01:03:45;7.03;;;5.20;;
26696;SDS011;14312;52.614;13.496;2024-02-28T01:06:31;7.35;;;5.28;;
26696;SDS011;14312;52.614;13.496;2024-02-28T01:09:17;7.13;;;4.85;;
26696;SDS011;14312;52.614;13.496;2024-02-28T01:12:03;6.30;;;4.38;;
26696;SDS011;14312;52.614;13.496;2024-02-28T01:14:49;8.50;;;5.72;;
26696;SDS011;14312;52.614;13.496;2024-02-28T01:17:35;7.35;;;5.05;;
26696;SDS011;14312;52.614;13.496;2024-02-28T01:20:21;9.07;;;5.05;;
26696;SDS011;14312;52.614;13.496;2024-02-28T01:23:07;6.78;;;4.50;;
26696;SDS011;14312;52.614;13.496;2024-02-28T01:25:53;6.68;;;4.68;;
26696;SDS011;14312;52.614;13.496;2024-02-28T01:28:39;5.57;;;4.68;;
26696;SDS011;14312;52.614;13.496;2024-02-28T01:31:25;5.95;;;3.88;;
26696;SDS011;14312;52.614;13.496;2024-02-28T01:34:11;5.32;;;4.82;;
26696;SDS011;14312;52.614;13.496;2024-02-28T01:36:57;6.22;;;4.30;;
26696;SDS011;14312;52.614;13.496;2024-02-28T01:39:43;6.60;;;4.95;;
26696;SDS011;14312;52.614;13.496;2024-02-28T01:42:28;6.03;;;4.50;;
26696;SDS011;14312;52.614;13.496;2024-02-28T01:45:15;6.22;;;4.90;;
26696;SDS011;14312;52.614;13.496;2024-02-28T01:48:02;7.97;;;4.63;;
26696;SDS011;14312;52.614;13.496;2024-02-28T01:50:48;6.35;;;4.75;;
26696;SDS011;14312;52.614;13.496;2024-02-28T01:53:34;5.88;;;4.45;;
26696;SDS011;14312;52.614;13.496;2024-02-28T01:56:20;6.88;;;5.22;;
26696;SDS011;14312;52.614;13.496;2024-02-28T01:59:08;6.30;;;4.43;;
26696;SDS011;14312;52.614;13.496;2024-02-28T02:01:56;6.18;;;4.68;;
26696;SDS011;14312;52.614;13.496;2024-02-28T02:04:41;6.45;;;4.40;;
26696;SDS011;14312;52.614;13.496;2024-02-28T02:07:27;4.82;;;3.80;;
26696;SDS011;14312;52.614;13.496;2024-02-28T02:10:14;6.10;;;4.38;;
26696;SDS011;14312;52.614;13.496;2024-02-28T02:13:06;6.13;;;4.32;;
26696;SDS011;14312;52.614;13.496;2024-02-28T02:15:52;5.15;;;4.18;;
26696;SDS011;14312;52.614;13.496;2024-02-28T02:18:38;5.18;;;4.10;;
26696;SDS011;14312;52.614;13.496;2024-02-28T02:21:26;6.68;;;4.80;;
26696;SDS011;14312;52.614;13.496;2024-02-28T02:24:16;6.57;;;5.07;;
26696;SDS011;14312;52.614;13.496;2024-02-28T02:27:02;7.82;;;4.75;;
26696;SDS011;14312;52.614;13.496;2024-02-28T02:29:50;5.80;;;4.68;;
26696;SDS011;14312;52.614;13.496;2024-02-28T02:32:36;6.63;;;4.78;;
26696;SDS011;14312;52.614;13.496;2024-02-28T02:35:22;6.38;;;5.13;;
26696;SDS011;14312;52.614;13.496;2024-02-28T02:38:08;5.50;;;4.28;;
26696;SDS011;14312;52.614;13.496;2024-02-28T02:40:54;5.85;;;4.28;;
26696;SDS011;14312;52.614;13.496;2024-02-28T02:43:40;5.88;;;4.50;;
26696;SDS011;14312;52.614;13.496;2024-02-28T02:46:26;5.40;;;4.10;;
26696;SDS011;14312;52.614;13.496;2024-02-28T02:49:12;7.10;;;4.50;;
26696;SDS011;14312;52.614;13.496;2024-02-28T02:51:57;5.00;;;3.70;;
26696;SDS011;14312;52.614;13.496;2024-02-28T02:54:43;6.18;;;4.28;;
26696;SDS011;14312;52.614;13.496;2024-02-28T02:57:31;4.70;;;4.03;;
26696;SDS011;14312;52.614;13.496;2024-02-28T03:00:17;6.60;;;4.43;;
26696;SDS011;14312;52.614;13.496;2024-02-28T03:03:03;6.47;;;4.47;;
26696;SDS011;14312;52.614;13.496;2024-02-28T03:05:51;7.00;;;4.40;;
26696;SDS011;14312;52.614;13.496;2024-02-28T03:08:37;6.30;;;4.63;;
26696;SDS011;14312;52.614;13.496;2024-02-28T03:11:23;4.80;;;4.05;;
26696;SDS011;14312;52.614;13.496;2024-02-28T03:14:09;5.28;;;4.03;;
26696;SDS011;14312;52.614;13.496;2024-02-28T03:16:54;4.55;;;3.88;;
26696;SDS011;14312;52.614;13.496;2024-02-28T03:19:41;4.68;;;3.38;;
26696;SDS011;14312;52.614;13.496;2024-02-28T03:22:27;4.60;;;3.35;;
26696;SDS011;14312;52.614;13.496;2024-02-28T03:25:13;3.45;;;3.00;;
26696;SDS011;14312;52.614;13.496;2024-02-28T03:27:59;4.95;;;3.70;;
26696;SDS011;14312;52.614;13.496;2024-02-28T03:30:46;3.97;;;3.35;;
26696;SDS011;14312;52.614;13.496;2024-02-28T03:33:32;3.92;;;3.40;;
26696;SDS011;14312;52.614;13.496;2024-02-28T03:36:19;4.00;;;3.17;;
26696;SDS011;14312;52.614;13.496;2024-02-28T03:39:05;3.88;;;3.10;;
26696;SDS011;14312;52.614;13.496;2024-02-28T03:41:51;4.10;;;3.25;;
26696;SDS011;14312;52.614;13.496;2024-02-28T03:44:37;3.83;;;2.95;;
26696;SDS011;14312;52.614;13.496;2024-02-28T03:47:23;3.47;;;3.17;;
26696;SDS011;14312;52.614;13.496;2024-02-28T03:50:10;3.72;;;3.38;;
26696;SDS011;14312;52.614;13.496;2024-02-28T03:52:56;3.60;;;2.90;;
26696;SDS011;14312;52.614;13.496;2024-02-28T03:55:41;3.55;;;2.70;;
26696;SDS011;14312;52.614;13.496;2024-02-28T03:58:29;3.67;;;2.88;;
26696;SDS011;14312;52.614;13.496;2024-02-28T04:01:15;3.78;;;2.92;;
26696;SDS011;14312;52.614;13.496;2024-02-28T04:04:01;3.58;;;2.78;;
26696;SDS011;14312;52.614;13.496;2024-02-28T04:06:47;3.30;;;2.72;;
26696;SDS011;14312;52.614;13.496;2024-02-28T04:09:33;3.95;;;3.50;;
26696;SDS011;14312;52.614;13.496;2024-02-28T04:12:19;4.03;;;2.70;;
26696;SDS011;14312;52.614;13.496;2024-02-28T04:15:05;3.45;;;2.58;;
26696;SDS011;14312;52.614;13.496;2024-02-28T04:17:51;2.80;;;2.50;;
26696;SDS011;14312;52.614;13.496;2024-02-28T04:20:37;3.70;;;2.67;;
26696;SDS011;14312;52.614;13.496;2024-02-28T04:23:24;3.88;;;2.60;;
26696;SDS011;14312;52.614;13.496;2024-02-28T04:26:10;4.55;;;3.03;;
26696;SDS011;14312;52.614;13.496;2024-02-28T04:28:54;2.67;;;2.25;;
26696;SDS011;14312;52.614;13.496;2024-02-28T04:31:41;3.25;;;2.70;;
26696;SDS011;14312;52.614;13.496;2024-02-28T04:34:27;3.17;;;2.58;;
26696;SDS011;14312;52.614;13.496;2024-02-28T04:37:13;2.28;;;2.08;;
26696;SDS011;14312;52.614;13.496;2024-02-28T04:40:00;3.53;;;2.55;;
26696;SDS011;14312;52.614;13.496;2024-02-28T04:42:47;2.90;;;2.42;;
26696;SDS011;14312;52.614;13.496;2024-02-28T04:45:32;2.95;;;2.60;;
26696;SDS011;14312;52.614;13.496;2024-02-28T04:48:18;3.03;;;2.30;;
26696;SDS011;14312;52.614;13.496;2024-02-28T04:51:04;3.20;;;2.40;;
26696;SDS011;14312;52.614;13.496;2024-02-28T04:53:50;2.65;;;2.30;;
26696;SDS011;14312;52.614;13.496;2024-02-28T04:56:40;3.00;;;2.35;;
26696;SDS011;14312;52.614;13.496;2024-02-28T04:59:26;2.60;;;2.40;;
26696;SDS011;14312;52.614;13.496;2024-02-28T05:02:12;2.70;;;2.33;;
26696;SDS011;14312;52.614;13.496;2024-02-28T05:04:58;3.28;;;2.58;;
26696;SDS011;14312;52.614;13.496;2024-02-28T05:07:48;3.28;;;2.60;;
26696;SDS011;14312;52.614;13.496;2024-02-28T05:10:34;3.28;;;2.97;;
26696;SDS011;14312;52.614;13.496;2024-02-28T05:13:20;4.03;;;3.08;;
26696;SDS011;14312;52.614;13.496;2024-02-28T05:16:13;5.70;;;3.33;;
26696;SDS011;14312;52.614;13.496;2024-02-28T05:19:00;4.05;;;3.38;;
26696;SDS011;14312;52.614;13.496;2024-02-28T05:21:46;3.83;;;3.08;;
26696;SDS011;14312;52.614;13.496;2024-02-28T05:24:31;3.63;;;2.95;;
26696;SDS011;14312;52.614;13.496;2024-02-28T05:27:17;4.50;;;3.00;;
26696;SDS011;14312;52.614;13.496;2024-02-28T05:30:03;3.47;;;2.80;;
26696;SDS011;14312;52.614;13.496;2024-02-28T05:32:51;3.80;;;3.05;;
26696;SDS011;14312;52.614;13.496;2024-02-28T05:35:37;4.22;;;3.75;;
26696;SDS011;14312;52.614;13.496;2024-02-28T05:38:23;5.10;;;3.40;;
26696;SDS011;14312;52.614;13.496;2024-02-28T05:41:09;3.22;;;2.92;;
26696;SDS011;14312;52.614;13.496;2024-02-28T05:43:55;3.15;;;2.70;;
26696;SDS011;14312;52.614;13.496;2024-02-28T05:46:41;4.50;;;3.22;;
26696;SDS011;14312;52.614;13.496;2024-02-28T05:49:27;4.15;;;3.05;;
26696;SDS011;14312;52.614;13.496;2024-02-28T05:52:13;3.90;;;2.97;;
26696;SDS011;14312;52.614;13.496;2024-02-28T05:54:59;4.32;;;3.30;;
26696;SDS011;14312;52.614;13.496;2024-02-28T05:57:45;4.50;;;3.55;;
26696;SDS011;14312;52.614;13.496;2024-02-28T06:00:31;4.88;;;3.88;;
26696;SDS011;14312;52.614;13.496;2024-02-28T06:03:17;4.93;;;3.45;;
26696;SDS011;14312;52.614;13.496;2024-02-28T06:06:03;4.03;;;3.50;;
26696;SDS011;14312;52.614;13.496;2024-02-28T06:08:53;3.63;;;3.08;;
26696;SDS011;14312;52.614;13.496;2024-02-28T06:11:38;4.57;;;3.55;;
26696;SDS011;14312;52.614;13.496;2024-02-28T06:14:24;4.13;;;3.60;;
26696;SDS011;14312;52.614;13.496;2024-02-28T06:17:10;4.90;;;3.53;;
26696;SDS011;14312;52.614;13.496;2024-02-28T06:19:56;5.95;;;3.53;;
26696;SDS011;14312;52.614;13.496;2024-02-28T06:22:42;4.43;;;3.58;;
26696;SDS011;14312;52.614;13.496;2024-02-28T06:25:28;4.72;;;3.85;;
26696;SDS011;14312;52.614;13.496;2024-02-28T06:28:14;4.93;;;3.53;;
26696;SDS011;14312;52.614;13.496;2024-02-28T06:31:00;5.18;;;3.67;;
26696;SDS011;14312;52.614;13.496;2024-02-28T06:33:46;4.95;;;3.55;;
26696;SDS011;14312;52.614;13.496;2024-02-28T06:36:32;4.75;;;3.85;;
26696;SDS011;14312;52.614;13.496;2024-02-28T06:39:18;4.35;;;3.55;;
26696;SDS011;14312;52.614;13.496;2024-02-28T06:42:04;5.25;;;3.53;;
26696;SDS011;14312;52.614;13.496;2024-02-28T06:44:50;4.45;;;3.40;;
26696;SDS011;14312;52.614;13.496;2024-02-28T06:47:36;4.13;;;3.20;;
26696;SDS011;14312;52.614;13.496;2024-02-28T06:50:23;4.93;;;3.53;;
26696;SDS011;14312;52.614;13.496;2024-02-28T06:53:08;3.92;;;3.38;;
26696;SDS011;14312;52.614;13.496;2024-02-28T06:55:54;4.18;;;3.55;;
26696;SDS011;14312;52.614;13.496;2024-02-28T06:58:40;5.75;;;4.13;;
26696;SDS011;14312;52.614;13.496;2024-02-28T07:01:30;5.40;;;3.85;;
26696;SDS011;14312;52.614;13.496;2024-02-28T07:04:16;4.47;;;3.15;;
26696;SDS011;14312;52.614;13.496;2024-02-28T07:07:02;4.82;;;3.83;;
26696;SDS011;14312;52.614;13.496;2024-02-28T07:09:48;4.05;;;3.10;;
26696;SDS011;14312;52.614;13.496;2024-02-28T07:12:34;4.70;;;3.42;;
26696;SDS011;14312;52.614;13.496;2024-02-28T07:15:20;4.72;;;3.75;;
26696;SDS011;14312;52.614;13.496;2024-02-28T07:18:07;4.65;;;3.38;;
26696;SDS011;14312;52.614;13.496;2024-02-28T07:20:53;4.65;;;3.63;;
26696;SDS011;14312;52.614;13.496;2024-02-28T07:23:40;3.70;;;3.33;;
26696;SDS011;14312;52.614;13.496;2024-02-28T07:26:26;3.67;;;2.95;;
26696;SDS011;14312;52.614;13.496;2024-02-28T07:29:12;4.15;;;3.50;;
26696;SDS011;14312;52.614;13.496;2024-02-28T07:31:58;3.58;;;2.92;;
26696;SDS011;14312;52.614;13.496;2024-02-28T07:34:45;3.20;;;2.90;;
26696;SDS011;14312;52.614;13.496;2024-02-28T07:37:30;4.80;;;3.25;;
26696;SDS011;14312;52.614;13.496;2024-02-28T07:40:16;4.55;;;3.50;;
26696;SDS011;14312;52.614;13.496;2024-02-28T07:43:03;4.43;;;3.97;;
26696;SDS011;14312;52.614;13.496;2024-02-28T07:45:49;5.05;;;4.10;;
26696;SDS011;14312;52.614;13.496;2024-02-28T07:48:35;5.93;;;4.47;;
26696;SDS011;14312;52.614;13.496;2024-02-28T07:51:20;6.43;;;4.45;;
26696;SDS011;14312;52.614;13.496;2024-02-28T07:54:07;5.57;;;4.32;;
26696;SDS011;14312;52.614;13.496;2024-02-28T07:56:53;5.15;;;4.07;;
26696;SDS011;14312;52.614;13.496;2024-02-28T07:59:40;4.95;;;4.18;;
26696;SDS011;14312;52.614;13.496;2024-02-28T08:02:26;4.88;;;3.58;;
26696;SDS011;14312;52.614;13.496;2024-02-28T08:05:13;5.90;;;4.53;;
26696;SDS011;14312;52.614;13.496;2024-02-28T08:07:59;6.22;;;4.70;;
26696;SDS011;14312;52.614;13.496;2024-02-28T08:10:45;6.88;;;4.90;;
26696;SDS011;14312;52.614;13.496;2024-02-28T08:13:32;6.40;;;4.47;;
26696;SDS011;14312;52.614;13.496;2024-02-28T08:16:18;6.00;;;4.13;;
26696;SDS011;14312;52.614;13.496;2024-02-28T08:19:02;4.35;;;3.58;;
26696;SDS011;14312;52.614;13.496;2024-02-28T08:21:48;4.40;;;3.97;;
26696;SDS011;14312;52.614;13.496;2024-02-28T08:24:35;4.25;;;3.85;;
26696;SDS011;14312;52.614;13.496;2024-02-28T08:27:21;5.63;;;4.07;;
26696;SDS011;14312;52.614;13.496;2024-02-28T08:30:09;4.63;;;3.75;;
26696;SDS011;14312;52.614;13.496;2024-02-28T08:32:55;5.20;;;4.13;;
26696;SDS011;14312;52.614;13.496;2024-02-28T08:35:41;4.80;;;4.30;;
26696;SDS011;14312;52.614;13.496;2024-02-28T08:38:28;5.40;;;4.63;;
26696;SDS011;14312;52.614;13.496;2024-02-28T08:41:14;7.35;;;4.68;;
26696;SDS011;14312;52.614;13.496;2024-02-28T08:44:01;6.90;;;4.97;;
26696;SDS011;14312;52.614;13.496;2024-02-28T08:46:47;6.63;;;4.82;;
26696;SDS011;14312;52.614;13.496;2024-02-28T08:49:33;6.00;;;4.70;;
26696;SDS011;14312;52.614;13.496;2024-02-28T08:52:20;6.30;;;4.45;;
26696;SDS011;14312;52.614;13.496;2024-02-28T08:55:07;5.65;;;4.72;;
26696;SDS011;14312;52.614;13.496;2024-02-28T08:57:53;5.45;;;4.50;;
26696;SDS011;14312;52.614;13.496;2024-02-28T09:00:39;5.10;;;4.13;;
26696;SDS011;14312;52.614;13.496;2024-02-28T09:03:25;5.45;;;4.05;;
26696;SDS011;14312;52.614;13.496;2024-02-28T09:06:11;5.30;;;4.05;;
26696;SDS011;14312;52.614;13.496;2024-02-28T09:08:57;4.60;;;3.38;;
26696;SDS011;14312;52.614;13.496;2024-02-28T09:11:43;4.80;;;3.92;;
26696;SDS011;14312;52.614;13.496;2024-02-28T09:14:29;6.40;;;3.60;;
26696;SDS011;14312;52.614;13.496;2024-02-28T09:17:15;4.32;;;3.42;;
26696;SDS011;14312;52.614;13.496;2024-02-28T09:20:01;4.45;;;3.78;;
26696;SDS011;14312;52.614;13.496;2024-02-28T09:22:47;3.72;;;3.33;;
26696;SDS011;14312;52.614;13.496;2024-02-28T09:25:33;4.22;;;3.38;;
26696;SDS011;14312;52.614;13.496;2024-02-28T09:28:21;3.60;;;3.25;;
26696;SDS011;14312;52.614;13.496;2024-02-28T09:31:06;3.72;;;3.25;;
26696;SDS011;14312;52.614;13.496;2024-02-28T09:33:54;3.67;;;3.22;;
26696;SDS011;14312;52.614;13.496;2024-02-28T09:36:40;5.38;;;3.65;;
26696;SDS011;14312;52.614;13.496;2024-02-28T09:39:27;4.90;;;3.92;;
26696;SDS011;14312;52.614;13.496;2024-02-28T09:42:13;5.30;;;3.25;;
26696;SDS011;14312;52.614;13.496;2024-02-28T09:45:00;3.80;;;3.38;;
26696;SDS011;14312;52.614;13.496;2024-02-28T09:47:49;4.25;;;3.40;;
26696;SDS011;14312;52.614;13.496;2024-02-28T09:50:35;4.38;;;3.72;;
26696;SDS011;14312;52.614;13.496;2024-02-28T09:53:24;4.35;;;3.42;;
26696;SDS011;14312;52.614;13.496;2024-02-28T09:56:10;4.68;;;3.67;;
26696;SDS011;14312;52.614;13.496;2024-02-28T09:58:57;5.03;;;3.95;;
26696;SDS011;14312;52.614;13.496;2024-02-28T10:01:46;5.28;;;4.50;;
26696;SDS011;14312;52.614;13.496;2024-02-28T10:04:38;6.28;;;4.82;;
26696;SDS011;14312;52.614;13.496;2024-02-28T10:07:25;5.47;;;4.50;;
26696;SDS011;14312;52.614;13.496;2024-02-28T10:10:10;7.90;;;5.57;;
26696;SDS011;14312;52.614;13.496;2024-02-28T10:12:56;5.72;;;4.63;;
26696;SDS011;14312;52.614;13.496;2024-02-28T10:15:44;5.80;;;4.47;;
26696;SDS011;14312;52.614;13.496;2024-02-28T10:18:30;5.00;;;4.28;;
26696;SDS011;14312;52.614;13.496;2024-02-28T10:21:16;6.35;;;5.07;;
26696;SDS011;14312;52.614;13.496;2024-02-28T10:24:04;4.82;;;3.90;;
26696;SDS011;14312;52.614;13.496;2024-02-28T10:26:50;5.70;;;4.55;;
26696;SDS011;14312;52.614;13.496;2024-02-28T10:29:42;4.60;;;4.10;;
26696;SDS011;14312;52.614;13.496;2024-02-28T10:32:32;5.25;;;4.28;;
26696;SDS011;14312;52.614;13.496;2024-02-28T10:35:21;6.43;;;4.85;;
26696;SDS011;14312;52.614;13.496;2024-02-28T10:38:11;6.90;;;4.72;;
26696;SDS011;14312;52.614;13.496;2024-02-28T10:40:57;7.57;;;5.30;;
26696;SDS011;14312;52.614;13.496;2024-02-28T10:43:45;6.28;;;4.57;;
26696;SDS011;14312;52.614;13.496;2024-02-28T10:46:31;5.40;;;4.35;;
26696;SDS011;14312;52.614;13.496;2024-02-28T10:49:17;5.70;;;4.65;;
26696;SDS011;14312;52.614;13.496;2024-02-28T10:52:03;6.25;;;4.75;;
26696;SDS011;14312;52.614;13.496;2024-02-28T10:54:53;5.30;;;4.35;;
26696;SDS011;14312;52.614;13.496;2024-02-28T10:57:41;6.50;;;5.00;;
26696;SDS011;14312;52.614;13.496;2024-02-28T11:00:28;6.95;;;5.30;;
26696;SDS011;14312;52.614;13.496;2024-02-28T11:03:15;7.45;;;5.40;;
26696;SDS011;14312;52.614;13.496;2024-02-28T11:06:03;8.20;;;6.32;;
26696;SDS011;14312;52.614;13.496;2024-02-28T11:08:49;9.30;;;6.68;;
26696;SDS011;14312;52.614;13.496;2024-02-28T11:11:40;8.25;;;6.30;;
26696;SDS011;14312;52.614;13.496;2024-02-28T11:14:26;7.47;;;6.18;;
26696;SDS011;14312;52.614;13.496;2024-02-28T11:17:12;7.03;;;5.65;;
26696;SDS011;14312;52.614;13.496;2024-02-28T11:19:58;9.05;;;5.97;;
26696;SDS011;14312;52.614;13.496;2024-02-28T11:22:44;5.22;;;4.72;;
26696;SDS011;14312;52.614;13.496;2024-02-28T11:25:30;8.20;;;6.00;;
26696;SDS011;14312;52.614;13.496;2024-02-28T11:28:17;6.82;;;5.85;;
26696;SDS011;14312;52.614;13.496;2024-02-28T11:31:03;8.27;;;6.07;;
26696;SDS011;14312;52.614;13.496;2024-02-28T11:33:49;8.15;;;6.00;;
26696;SDS011;14312;52.614;13.496;2024-02-28T11:36:35;7.32;;;6.03;;
26696;SDS011;14312;52.614;13.496;2024-02-28T11:39:22;7.95;;;6.45;;
26696;SDS011;14312;52.614;13.496;2024-02-28T11:45:02;6.82;;;5.60;;
26696;SDS011;14312;52.614;13.496;2024-02-28T11:47:50;8.05;;;6.38;;
26696;SDS011;14312;52.614;13.496;2024-02-28T11:50:37;7.78;;;6.63;;
26696;SDS011;14312;52.614;13.496;2024-02-28T11:53:24;7.60;;;6.38;;
26696;SDS011;14312;52.614;13.496;2024-02-28T11:56:12;7.88;;;6.30;;
26696;SDS011;14312;52.614;13.496;2024-02-28T11:59:03;8.48;;;6.20;;
26696;SDS011;14312;52.614;13.496;2024-02-28T12:01:49;8.55;;;6.38;;
26696;SDS011;14312;52.614;13.496;2024-02-28T12:04:37;7.95;;;6.25;;
26696;SDS011;14312;52.614;13.496;2024-02-28T12:07:23;7.82;;;6.70;;
26696;SDS011;14312;52.614;13.496;2024-02-28T12:10:09;10.93;;;8.02;;
26696;SDS011;14312;52.614;13.496;2024-02-28T12:12:59;9.55;;;7.43;;
26696;SDS011;14312;52.614;13.496;2024-02-28T12:15:45;10.60;;;7.30;;
26696;SDS011;14312;52.614;13.496;2024-02-28T12:18:32;8.57;;;6.38;;
26696;SDS011;14312;52.614;13.496;2024-02-28T12:21:18;9.50;;;7.38;;
26696;SDS011;14312;52.614;13.496;2024-02-28T12:24:08;9.60;;;6.57;;
26696;SDS011;14312;52.614;13.496;2024-02-28T12:26:55;7.88;;;5.90;;
26696;SDS011;14312;52.614;13.496;2024-02-28T12:29:41;12.50;;;8.73;;
26696;SDS011;14312;52.614;13.496;2024-02-28T12:32:27;8.73;;;7.10;;
26696;SDS011;14312;52.614;13.496;2024-02-28T12:35:13;8.88;;;6.93;;
26696;SDS011;14312;52.614;13.496;2024-02-28T12:37:59;10.07;;;6.90;;
26696;SDS011;14312;52.614;13.496;2024-02-28T12:40:45;9.32;;;6.20;;
26696;SDS011;14312;52.614;13.496;2024-02-28T12:43:31;7.03;;;5.68;;
26696;SDS011;14312;52.614;13.496;2024-02-28T12:46:18;8.68;;;6.53;;
26696;SDS011;14312;52.614;13.496;2024-02-28T12:49:04;7.18;;;5.85;;
26696;SDS011;14312;52.614;13.496;2024-02-28T12:51:50;7.15;;;5.82;;
26696;SDS011;14312;52.614;13.496;2024-02-28T12:54:37;8.75;;;5.28;;
26696;SDS011;14312;52.614;13.496;2024-02-28T12:57:23;6.78;;;5.38;;
26696;SDS011;14312;52.614;13.496;2024-02-28T13:00:09;7.15;;;5.88;;
26696;SDS011;14312;52.614;13.496;2024-02-28T13:02:55;7.88;;;6.38;;
26696;SDS011;14312;52.614;13.496;2024-02-28T13:05:41;8.05;;;5.93;;
26696;SDS011;14312;52.614;13.496;2024-02-28T13:08:27;7.32;;;5.55;;
26696;SDS011;14312;52.614;13.496;2024-02-28T13:11:13;7.63;;;6.03;;
26696;SDS011;14312;52.614;13.496;2024-02-28T13:13:59;7.55;;;5.90;;
26696;SDS011;14312;52.614;13.496;2024-02-28T13:16:45;7.50;;;4.93;;
26696;SDS011;14312;52.614;13.496;2024-02-28T13:19:31;5.80;;;4.72;;
26696;SDS011;14312;52.614;13.496;2024-02-28T13:22:17;6.85;;;5.15;;
26696;SDS011;14312;52.614;13.496;2024-02-28T13:25:03;6.35;;;5.47;;
26696;SDS011;14312;52.614;13.496;2024-02-28T13:27:49;6.65;;;4.82;;
26696;SDS011;14312;52.614;13.496;2024-02-28T13:30:36;6.55;;;4.90;;
26696;SDS011;14312;52.614;13.496;2024-02-28T13:33:22;5.05;;;4.40;;
26696;SDS011;14312;52.614;13.496;2024-02-28T13:36:08;6.05;;;4.68;;
26696;SDS011;14312;52.614;13.496;2024-02-28T13:38:55;6.30;;;4.95;;
26696;SDS011;14312;52.614;13.496;2024-02-28T13:41:41;6.00;;;4.80;;
26696;SDS011;14312;52.614;13.496;2024-02-28T13:44:27;6.82;;;5.53;;
26696;SDS011;14312;52.614;13.496;2024-02-28T13:47:14;6.93;;;5.53;;
26696;SDS011;14312;52.614;13.496;2024-02-28T13:50:00;7.38;;;5.47;;
26696;SDS011;14312;52.614;13.496;2024-02-28T13:52:48;8.23;;;6.35;;
26696;SDS011;14312;52.614;13.496;2024-02-28T13:55:34;8.13;;;5.57;;
26696;SDS011;14312;52.614;13.496;2024-02-28T13:58:19;6.82;;;5.43;;
26696;SDS011;14312;52.614;13.496;2024-02-28T14:01:06;7.28;;;5.80;;
26696;SDS011;14312;52.614;13.496;2024-02-28T14:03:52;5.60;;;5.00;;
26696;SDS011;14312;52.614;13.496;2024-02-28T14:06:38;6.22;;;4.82;;
26696;SDS011;14312;52.614;13.496;2024-02-28T14:09:24;6.28;;;5.65;;
26696;SDS011;14312;52.614;13.496;2024-02-28T14:12:10;7.13;;;5.90;;
26696;SDS011;14312;52.614;13.496;2024-02-28T14:14:56;8.38;;;5.95;;
26696;SDS011;14312;52.614;13.496;2024-02-28T14:17:43;5.75;;;5.00;;
26696;SDS011;14312;52.614;13.496;2024-02-28T14:20:29;6.18;;;4.95;;
26696;SDS011;14312;52.614;13.496;2024-02-28T14:23:15;7.15;;;5.15;;
26696;SDS011;14312;52.614;13.496;2024-02-28T14:26:03;6.20;;;4.85;;
26696;SDS011;14312;52.614;13.496;2024-02-28T14:28:49;6.53;;;4.97;;
26696;SDS011;14312;52.614;13.496;2024-02-28T14:31:35;6.95;;;4.70;;
26696;SDS011;14312;52.614;13.496;2024-02-28T14:34:21;5.07;;;4.57;;
26696;SDS011;14312;52.614;13.496;2024-02-28T14:37:07;6.25;;;4.95;;
26696;SDS011;14312;52.614;13.496;2024-02-28T14:39:53;5.63;;;4.85;;
26696;SDS011;14312;52.614;13.496;2024-02-28T14:42:40;5.32;;;4.18;;
26696;SDS011;14312;52.614;13.496;2024-02-28T14:45:27;6.25;;;4.38;;
26696;SDS011;14312;52.614;13.496;2024-02-28T14:48:13;6.78;;;5.43;;
26696;SDS011;14312;52.614;13.496;2024-02-28T14:50:59;7.43;;;5.70;;
26696;SDS011;14312;52.614;13.496;2024-02-28T14:53:47;6.05;;;4.22;;
26696;SDS011;14312;52.614;13.496;2024-02-28T14:56:33;6.03;;;5.07;;
26696;SDS011;14312;52.614;13.496;2024-02-28T14:59:20;5.80;;;4.65;;
26696;SDS011;14312;52.614;13.496;2024-02-28T15:02:06;5.78;;;4.82;;
26696;SDS011;14312;52.614;13.496;2024-02-28T15:04:52;5.57;;;4.32;;
26696;SDS011;14312;52.614;13.496;2024-02-28T15:07:38;6.10;;;4.78;;
26696;SDS011;14312;52.614;13.496;2024-02-28T15:10:24;5.30;;;4.32;;
26696;SDS011;14312;52.614;13.496;2024-02-28T15:13:10;5.43;;;4.82;;
26696;SDS011;14312;52.614;13.496;2024-02-28T15:15:56;7.65;;;6.45;;
26696;SDS011;14312;52.614;13.496;2024-02-28T15:18:42;8.35;;;7.30;;
26696;SDS011;14312;52.614;13.496;2024-02-28T15:21:28;7.20;;;6.50;;
26696;SDS011;14312;52.614;13.496;2024-02-28T15:24:14;8.35;;;6.90;;
26696;SDS011;14312;52.614;13.496;2024-02-28T15:27:02;7.65;;;6.95;;
26696;SDS011;14312;52.614;13.496;2024-02-28T15:29:48;7.95;;;7.03;;
26696;SDS011;14312;52.614;13.496;2024-02-28T15:32:34;9.88;;;7.00;;
26696;SDS011;14312;52.614;13.496;2024-02-28T15:35:20;8.40;;;7.55;;
26696;SDS011;14312;52.614;13.496;2024-02-28T15:38:08;8.60;;;7.32;;
26696;SDS011;14312;52.614;13.496;2024-02-28T15:40:54;7.95;;;6.85;;
26696;SDS011;14312;52.614;13.496;2024-02-28T15:43:40;11.30;;;9.65;;
26696;SDS011;14312;52.614;13.496;2024-02-28T15:46:26;11.40;;;9.18;;
26696;SDS011;14312;52.614;13.496;2024-02-28T15:49:12;10.18;;;9.07;;
26696;SDS011;14312;52.614;13.496;2024-02-28T15:51:58;9.90;;;8.75;;
26696;SDS011;14312;52.614;13.496;2024-02-28T15:54:44;9.02;;;8.13;;
26696;SDS011;14312;52.614;13.496;2024-02-28T15:57:30;10.70;;;9.60;;
26696;SDS011;14312;52.614;13.496;2024-02-28T16:00:16;10.05;;;9.02;;
26696;SDS011;14312;52.614;13.496;2024-02-28T16:03:02;9.93;;;8.95;;
26696;SDS011;14312;52.614;13.496;2024-02-28T16:05:49;13.40;;;10.55;;
26696;SDS011;14312;52.614;13.496;2024-02-28T16:08:39;10.35;;;9.35;;
26696;SDS011;14312;52.614;13.496;2024-02-28T16:11:26;10.52;;;9.43;;
26696;SDS011;14312;52.614;13.496;2024-02-28T16:14:12;8.95;;;8.05;;
26696;SDS011;14312;52.614;13.496;2024-02-28T16:16:59;9.82;;;8.82;;
26696;SDS011;14312;52.614;13.496;2024-02-28T16:19:45;10.57;;;9.48;;
26696;SDS011;14312;52.614;13.496;2024-02-28T16:22:32;8.40;;;7.47;;
26696;SDS011;14312;52.614;13.496;2024-02-28T16:25:18;8.13;;;7.13;;
26696;SDS011;14312;52.614;13.496;2024-02-28T16:28:04;8.00;;;7.13;;